createdAt,value
2023-02-21T00:03:10.139Z,8.57
2023-02-21T00:07:22.971Z,11.37
2023-02-21T00:11:35.739Z,18.00
2023-02-21T00:15:48.840Z,13.77
2023-02-21T00:20:04.260Z,12.60
2023-02-21T00:24:17.154Z,6.13
2023-02-21T00:28:30.657Z,6.60
2023-02-21T00:32:44.185Z,8.90
2023-02-21T00:36:59.643Z,8.50
2023-02-21T00:41:12.692Z,10.00
2023-02-21T00:45:27.079Z,10.33
2023-02-21T00:49:39.892Z,6.30
2023-02-21T00:53:55.766Z,8.37
2023-02-21T00:58:08.469Z,6.77
2023-02-21T01:02:21.437Z,8.10
2023-02-21T01:06:34.229Z,7.23
2023-02-21T01:10:49.699Z,9.13
2023-02-21T01:15:02.653Z,11.33
2023-02-21T01:19:15.375Z,13.63
2023-02-21T01:23:28.144Z,8.60
2023-02-21T01:27:43.714Z,8.20
2023-02-21T01:31:56.433Z,11.50
2023-02-21T01:36:09.210Z,8.80
2023-02-21T01:40:24.305Z,7.33
2023-02-21T01:45:04.791Z,9.80
2023-02-21T01:49:24.342Z,15.27
2023-02-21T01:53:41.780Z,13.17
2023-02-21T01:57:55.766Z,12.93
2023-02-21T02:02:20.082Z,10.23
2023-02-21T02:06:33.436Z,10.63
2023-02-21T02:10:48.155Z,10.33
2023-02-21T02:15:27.752Z,8.83
2023-02-21T02:20:29.927Z,11.47
2023-02-21T02:24:59.589Z,15.30
2023-02-21T02:29:33.841Z,8.80
2023-02-21T02:34:40.652Z,8.60
2023-02-21T02:38:55.052Z,9.23
2023-02-21T02:43:13.426Z,11.03
2023-02-21T02:47:25.733Z,11.33
2023-02-21T02:51:31.032Z,10.13
2023-02-21T02:55:46.072Z,14.07
2023-02-21T02:59:50.129Z,12.10
2023-02-21T03:04:28.442Z,8.23
2023-02-21T03:08:47.824Z,9.60
2023-02-21T03:13:02.122Z,10.07
2023-02-21T03:17:09.510Z,8.50
2023-02-21T03:21:19.817Z,9.27
2023-02-21T03:25:26.944Z,10.57
2023-02-21T03:29:31.264Z,8.80
2023-02-21T03:33:35.096Z,11.40
2023-02-21T03:37:43.334Z,6.60
2023-02-21T03:41:57.881Z,10.93
2023-02-21T03:45:58.791Z,9.93
2023-02-21T03:50:02.008Z,12.53
2023-02-21T03:54:02.439Z,9.60
2023-02-21T03:58:13.523Z,8.97
2023-02-21T04:02:15.014Z,8.50
2023-02-21T04:06:15.999Z,8.57
2023-02-21T04:10:17.584Z,9.57
2023-02-21T04:14:24.442Z,10.37
2023-02-21T04:18:24.986Z,11.37
2023-02-21T04:22:27.315Z,9.07
2023-02-21T04:26:30.183Z,12.13
2023-02-21T04:30:33.812Z,11.13
2023-02-21T04:34:40.162Z,8.37
2023-02-21T04:38:44.476Z,14.10
2023-02-21T04:42:44.847Z,11.13
2023-02-21T04:46:48.337Z,12.30
2023-02-21T04:50:49.443Z,9.43
2023-02-21T04:54:49.870Z,14.07
2023-02-21T04:58:51.242Z,11.67
2023-02-21T05:02:55.133Z,12.73
2023-02-21T05:06:55.603Z,9.97
2023-02-21T05:10:56.803Z,11.53
2023-02-21T05:14:57.253Z,9.23
2023-02-21T05:19:02.852Z,10.20
2023-02-21T05:23:12.993Z,11.60
2023-02-21T05:27:15.894Z,11.10
2023-02-21T05:31:16.682Z,9.37
2023-02-21T05:35:22.049Z,9.00
2023-02-21T05:39:22.592Z,10.77
2023-02-21T05:43:23.766Z,12.07
2023-02-21T05:47:24.133Z,12.00
2023-02-21T05:51:28.324Z,13.93
2023-02-21T05:55:29.404Z,10.20
2023-02-21T05:59:29.847Z,8.83
2023-02-21T06:03:33.380Z,11.37
2023-02-21T06:07:36.368Z,10.93
2023-02-21T06:11:42.760Z,11.30
2023-02-21T06:15:43.056Z,13.63
2023-02-21T06:19:43.385Z,10.93
2023-02-21T06:23:46.753Z,10.70
2023-02-21T06:27:47.841Z,12.63
2023-02-21T06:31:48.545Z,11.83
2023-02-21T06:35:49.229Z,10.27
2023-02-21T06:39:52.273Z,11.40
2023-02-21T06:43:52.644Z,12.10
2023-02-21T06:47:52.881Z,13.43
2023-02-21T06:51:53.435Z,18.67
2023-02-21T06:55:56.931Z,12.67
2023-02-21T06:59:57.229Z,12.10
2023-02-21T07:03:59.783Z,13.97
2023-02-21T07:08:00.230Z,11.87
2023-02-21T07:12:04.899Z,10.87
2023-02-21T07:16:06.884Z,10.50
2023-02-21T07:20:08.680Z,11.53
2023-02-21T07:24:09.878Z,11.57
2023-02-21T07:28:13.882Z,12.10
2023-02-21T07:32:14.868Z,10.13
2023-02-21T07:36:15.368Z,11.57
2023-02-21T07:40:17.239Z,10.17
2023-02-21T07:44:20.661Z,12.17
2023-02-21T07:48:21.686Z,14.20
2023-02-21T07:52:22.049Z,13.33
2023-02-21T07:56:22.589Z,12.03
2023-02-21T08:00:26.481Z,14.20
2023-02-21T08:04:27.286Z,13.63
2023-02-21T08:08:28.161Z,12.57
2023-02-21T08:12:28.664Z,13.13
2023-02-21T08:16:34.744Z,14.50
2023-02-21T08:20:36.186Z,15.30
2023-02-21T08:24:36.862Z,15.80
2023-02-21T08:28:37.492Z,16.57
2023-02-21T08:32:41.013Z,18.83
2023-02-21T08:36:44.673Z,19.67
2023-02-21T08:40:46.154Z,14.13
2023-02-21T08:44:47.717Z,11.27
2023-02-21T08:48:50.931Z,13.07
2023-02-21T08:52:53.510Z,14.60
2023-02-21T08:56:54.969Z,13.10
2023-02-21T09:00:55.826Z,12.87
2023-02-21T09:04:59.758Z,9.60
2023-02-21T09:09:00.660Z,13.67
2023-02-21T09:13:01.197Z,13.23
2023-02-21T09:17:01.533Z,13.13
2023-02-21T09:21:05.150Z,11.07
2023-02-21T09:25:07.671Z,9.57
2023-02-21T09:29:08.128Z,10.07
2023-02-21T09:33:08.809Z,11.70
2023-02-21T09:37:12.364Z,12.88
2023-02-21T09:41:17.340Z,11.68
2023-02-21T09:45:22.436Z,9.77
2023-02-21T09:49:29.774Z,14.35
2023-02-21T09:53:39.344Z,10.50
2023-02-21T09:57:40.702Z,12.50
2023-02-21T10:01:59.321Z,8.55
2023-02-21T10:06:13.912Z,12.27
2023-02-21T10:10:24.649Z,10.27
2023-02-21T10:14:38.618Z,10.87
2023-02-21T10:18:48.730Z,10.32
2023-02-21T10:22:53.428Z,10.77
2023-02-21T10:27:05.776Z,10.27
2023-02-21T10:31:14.854Z,8.77
2023-02-21T10:35:15.489Z,10.85
2023-02-21T10:39:22.398Z,8.95
2023-02-21T10:43:34.716Z,9.85
2023-02-21T10:47:51.050Z,10.90
2023-02-21T10:52:07.825Z,7.95
2023-02-21T10:56:27.326Z,8.40
2023-02-21T11:00:38.120Z,9.75
2023-02-21T11:04:40.898Z,11.60
2023-02-21T11:08:44.586Z,9.90
2023-02-21T11:12:45.235Z,14.25
2023-02-21T11:16:48.712Z,8.27
2023-02-21T11:20:50.353Z,7.60
2023-02-21T11:25:02.766Z,8.30
2023-02-21T11:29:16.761Z,8.55
2023-02-21T11:33:24.626Z,10.20
2023-02-21T11:37:25.428Z,5.65
2023-02-21T11:41:32.429Z,7.22
2023-02-21T11:45:34.904Z,8.68
2023-02-21T11:49:52.206Z,7.50
2023-02-21T11:53:55.791Z,7.32
2023-02-21T11:58:09.165Z,7.03
2023-02-21T12:03:07.407Z,7.30
2023-02-21T12:07:24.568Z,8.02
2023-02-21T12:11:46.771Z,6.65
2023-02-21T12:16:04.332Z,6.30
2023-02-21T12:20:28.326Z,5.25
2023-02-21T12:25:05.403Z,5.88
2023-02-21T12:29:32.003Z,4.97
2023-02-21T12:33:47.629Z,5.63
2023-02-21T12:38:04.578Z,9.50
2023-02-21T12:42:33.845Z,4.32
2023-02-21T12:46:43.065Z,5.07
2023-02-21T12:50:49.686Z,4.47
2023-02-21T12:55:02.664Z,4.68
2023-02-21T12:59:14.717Z,3.78
2023-02-21T13:03:40.170Z,4.30
2023-02-21T13:07:49.650Z,4.32
2023-02-21T13:12:01.955Z,5.38
2023-02-21T13:16:10.442Z,2.78
2023-02-21T13:20:20.462Z,2.90
2023-02-21T13:24:51.827Z,3.40
2023-02-21T13:28:56.854Z,3.05
2023-02-21T13:33:03.639Z,2.88
2023-02-21T13:37:09.096Z,2.75
2023-02-21T13:41:17.124Z,3.25
2023-02-21T13:45:25.190Z,5.53
2023-02-21T13:49:59.773Z,2.40
2023-02-21T13:54:15.259Z,2.45
2023-02-21T13:58:42.027Z,2.90
2023-02-21T14:02:58.852Z,3.10
2023-02-21T14:07:02.406Z,3.25
2023-02-21T14:11:18.357Z,1.80
2023-02-21T14:15:22.655Z,1.90
2023-02-21T14:19:29.274Z,2.20
2023-02-21T14:23:50.075Z,3.17
2023-02-21T14:27:52.596Z,2.72
2023-02-21T14:31:59.383Z,7.40
2023-02-21T14:36:07.381Z,3.40
2023-02-21T14:40:32.527Z,2.90
2023-02-21T14:44:54.177Z,4.97
2023-02-21T14:49:27.968Z,4.10
2023-02-21T14:54:01.704Z,10.30
2023-02-21T14:58:45.589Z,2.65
2023-02-21T15:02:53.831Z,4.00
2023-02-21T15:07:15.350Z,3.30
2023-02-21T15:11:29.163Z,3.35
2023-02-21T15:15:37.585Z,2.58
2023-02-21T15:19:39.796Z,1.65
2023-02-21T15:23:41.210Z,2.45
2023-02-21T15:28:02.143Z,2.05
2023-02-21T15:32:06.565Z,2.30
2023-02-21T15:36:11.402Z,2.83
2023-02-21T15:40:21.130Z,1.88
2023-02-21T15:44:29.494Z,2.25
2023-02-21T15:48:32.844Z,2.08
2023-02-21T15:52:41.443Z,1.55
2023-02-21T15:56:42.961Z,4.55
2023-02-21T16:00:48.311Z,1.80
2023-02-21T16:04:54.202Z,1.50
2023-02-21T16:09:03.727Z,3.40
2023-02-21T16:13:05.250Z,1.88
2023-02-21T16:17:33.405Z,2.35
2023-02-21T16:21:36.541Z,1.90
2023-02-21T16:25:37.133Z,2.55
2023-02-21T16:29:37.839Z,4.75
2023-02-21T16:33:39.856Z,2.75
2023-02-21T16:37:43.097Z,2.97
2023-02-21T16:41:44.736Z,3.20
2023-02-21T16:45:45.892Z,5.50
2023-02-21T16:49:49.249Z,2.72
2023-02-21T16:53:52.783Z,4.20
2023-02-21T16:57:56.279Z,43.58
2023-02-21T17:01:58.053Z,14.17
2023-02-21T17:06:00.834Z,14.77
2023-02-21T17:10:03.910Z,19.43
2023-02-21T17:14:04.293Z,21.83
2023-02-21T17:18:05.594Z,20.57
2023-02-21T17:22:08.043Z,17.50
2023-02-21T17:26:12.379Z,13.97
2023-02-21T17:30:16.612Z,16.63
2023-02-21T17:34:17.188Z,28.67
2023-02-21T17:38:17.637Z,26.13
2023-02-21T17:42:21.277Z,17.10
2023-02-21T17:46:23.436Z,14.97
2023-02-21T17:50:25.749Z,24.83
2023-02-21T17:54:28.613Z,29.10
2023-02-21T17:58:32.980Z,26.20
2023-02-21T18:02:34.316Z,45.17
2023-02-21T18:06:34.723Z,41.47
2023-02-21T18:10:35.976Z,29.00
2023-02-21T18:14:39.479Z,31.10
2023-02-21T18:18:40.368Z,27.53
2023-02-21T18:22:41.461Z,24.53
2023-02-21T18:26:42.718Z,19.47
2023-02-21T18:30:47.762Z,19.50
2023-02-21T18:34:48.381Z,27.33
2023-02-21T18:38:49.706Z,25.67
2023-02-21T18:42:50.970Z,25.63
2023-02-21T18:47:08.759Z,23.17
2023-02-21T18:51:13.630Z,21.63
2023-02-21T18:55:15.172Z,23.27
2023-02-21T18:59:15.679Z,21.00
2023-02-21T19:03:20.299Z,23.70
2023-02-21T19:07:21.067Z,24.13
2023-02-21T19:11:24.645Z,23.70
2023-02-21T19:15:25.387Z,25.17
2023-02-21T19:19:32.013Z,26.37
2023-02-21T19:23:32.803Z,19.37
2023-02-21T19:27:33.855Z,17.03
2023-02-21T19:31:37.170Z,21.67
2023-02-21T19:35:40.595Z,19.33
2023-02-21T19:39:41.037Z,23.53
2023-02-21T19:43:42.797Z,21.43
2023-02-21T19:47:43.118Z,17.30
2023-02-21T19:51:47.665Z,26.07
2023-02-21T19:55:48.445Z,20.93
2023-02-21T19:59:48.811Z,30.43
2023-02-21T20:03:51.298Z,21.50
2023-02-21T20:07:54.263Z,22.53
2023-02-21T20:11:54.809Z,15.50
2023-02-21T20:15:55.446Z,18.70
2023-02-21T20:19:56.657Z,22.83
2023-02-21T20:24:01.490Z,18.10
2023-02-21T20:28:03.160Z,18.83
2023-02-21T20:32:04.064Z,28.63
2023-02-21T20:36:04.952Z,31.57
2023-02-21T20:40:11.202Z,39.93
2023-02-21T20:44:12.486Z,40.17
2023-02-21T20:48:13.986Z,37.93
2023-02-21T20:52:17.073Z,32.50
2023-02-21T20:56:21.126Z,26.10
2023-02-21T21:00:23.818Z,21.33
2023-02-21T21:04:28.110Z,17.90
2023-02-21T21:08:30.495Z,18.03
2023-02-21T21:12:33.417Z,11.43
2023-02-21T21:16:35.253Z,14.43
2023-02-21T21:20:39.098Z,17.40
2023-02-21T21:24:40.506Z,19.13
2023-02-21T21:28:44.310Z,16.10
2023-02-21T21:32:45.293Z,19.50
2023-02-21T21:36:48.408Z,20.33
2023-02-21T21:40:49.028Z,20.90
2023-02-21T21:44:54.230Z,20.80
2023-02-21T21:48:56.169Z,24.40
2023-02-21T21:53:01.159Z,19.37
2023-02-21T21:57:03.662Z,20.10
2023-02-21T22:01:08.402Z,16.57
2023-02-21T22:05:10.371Z,15.93
2023-02-21T22:09:15.519Z,13.83
2023-02-21T22:13:20.859Z,12.27
2023-02-21T22:17:24.241Z,11.13
2023-02-21T22:21:24.743Z,13.70
2023-02-21T22:25:25.193Z,9.93
2023-02-21T22:29:26.118Z,8.80
2023-02-21T22:33:29.483Z,9.73
2023-02-21T22:37:30.501Z,10.40
2023-02-21T22:41:34.456Z,10.67
2023-02-21T22:45:35.948Z,14.20
2023-02-21T22:49:39.413Z,12.50
2023-02-21T22:53:40.092Z,11.70
2023-02-21T22:57:40.395Z,12.60
2023-02-21T23:01:40.820Z,11.77
2023-02-21T23:05:46.714Z,12.30
2023-02-21T23:09:48.673Z,9.57
2023-02-21T23:13:49.908Z,10.60
2023-02-21T23:17:53.411Z,17.13
2023-02-21T23:21:57.868Z,10.43
2023-02-21T23:26:01.401Z,15.00
2023-02-21T23:30:01.620Z,28.07
2023-02-21T23:34:01.885Z,25.13
2023-02-21T23:38:06.465Z,19.00
2023-02-21T23:42:07.005Z,17.70
2023-02-21T23:46:10.498Z,16.83
2023-02-21T23:50:17.407Z,16.73
2023-02-21T23:54:21.277Z,14.07
2023-02-21T23:58:22.604Z,14.90
